Latest Weather Observations for Nhill Aerodrome

IDV60801

Issued at 11:35 pm EDT Thursday 30 October 2014 (issued every 30 minutes, with the page automatically refreshed every 10 minutes)

About weather observations | Map of weather stations | Latest weather observations for VIC | Other Formats
Station Details ID: 078015 Name: NHILL AERODROME Lat: -36.31 Lon: 141.65 Height: 138.9 m
Data from the previous 72 hours. | See also: Recent months at Nhill Aerodrome
Date/Time
EDT
Temp
°C
App
Temp
°C
Dew
Point
Rel
Hum
%
Delta-T
°C
Wind Press
QNH
hPa
Press
MSL
hPa
Rain
since 9 am
mm
Dir
 
Spd
km/h
Gust
km/h
Spd
kts
Gust
kts
30/11:30pm 13.7 10.2 5.3 57 4.0 S 13 15 7 8 1012.9 1012.8 0.0
30/11:00pm 14.4 11.6 5.2 54 4.4 S 9 11 5 6 1012.9 1012.8 0.0
30/10:30pm 15.6 12.4 5.2 50 5.0 S 11 11 6 6 1013.3 1013.1 0.0
30/10:00pm 16.4 13.7 3.5 42 6.0 S 7 9 4 5 1013.3 1013.1 0.0
30/09:30pm 17.8 15.3 4.0 40 6.5 S 6 7 3 4 1012.8 1012.7 0.0
30/09:00pm 19.7 16.6 3.4 34 7.7 WSW 9 11 5 6 1012.5 1012.4 0.0
30/08:30pm 20.3 17.2 3.5 33 8.0 SW 9 11 5 6 1012.3 1012.2 0.0
30/08:00pm 22.0 19.0 4.1 31 8.8 WSW 9 11 5 6 1011.8 1011.7 0.0
30/07:30pm 24.4 21.4 4.2 27 10.1 W 9 13 5 7 1011.9 1011.8 0.0
30/07:00pm 24.9 20.6 3.5 25 10.6 WSW 15 19 8 10 1011.9 1011.8 0.0
30/06:30pm 25.5 21.4 4.6 26 10.6 W 15 24 8 13 1012.0 1011.9 0.0
30/06:00pm 25.5 21.0 4.0 25 10.8 WSW 17 24 9 13 1012.0 1011.9 0.0
30/05:30pm 25.4 21.2 4.0 25 10.7 W 15 20 8 11 1011.9 1011.8 0.0
30/05:00pm 25.1 20.2 4.3 26 10.4 WSW 19 30 10 16 1012.2 1012.1 0.0
30/04:30pm 25.3 20.2 3.9 25 10.7 W 20 33 11 18 1012.3 1012.2 0.0
30/04:00pm 25.6 21.6 4.7 26 10.6 W 15 28 8 15 1012.5 1012.4 0.0
30/03:30pm 24.6 20.1 4.4 27 10.1 W 17 28 9 15 1012.8 1012.7 0.0
30/03:00pm 24.4 20.0 4.7 28 9.9 W 17 28 9 15 1013.4 1013.3 0.0
30/02:30pm 22.8 18.4 4.8 31 9.0 W 17 26 9 14 1013.7 1013.6 0.0
30/02:00pm 22.8 18.4 4.8 31 9.0 WSW 17 20 9 11 1014.2 1014.1 0.0
30/01:30pm 21.5 17.4 4.6 33 8.3 WSW 15 30 8 16 1014.5 1014.4 0.0
30/01:00pm 20.8 16.9 5.2 36 7.7 SW 15 22 8 12 1015.1 1015.0 0.0
30/12:30pm 20.2 17.3 6.5 41 6.9 W 11 20 6 11 1015.5 1015.4 0.0
30/12:00pm 18.2 14.8 6.1 45 6.0 SSW 13 22 7 12 1016.0 1015.9 0.0
30/11:30am 17.4 13.4 6.6 49 5.4 SW 17 28 9 15 1016.2 1016.1 0.0
30/11:00am 16.9 13.8 7.3 53 4.8 SW 13 22 7 12 1016.5 1016.4 0.0
30/10:30am 15.5 12.7 6.8 56 4.3 WSW 11 20 6 11 1016.4 1016.3 0.0
30/10:00am 14.9 12.1 7.0 59 3.9 WSW 11 19 6 10 1016.4 1016.3 0.0
30/09:30am 14.1 11.4 7.2 63 3.4 SSW 11 20 6 11 1016.6 1016.5 0.0
30/09:00am 13.3 10.3 7.7 69 2.8 SSW 13 26 7 14 1016.8 1016.7 0.0
30/08:30am 10.3 8.0 8.9 91 0.7 SW 11 15 6 8 1017.1 1017.0 0.0
30/08:00am 8.1 6.2 6.7 91 0.7 SSW 6 7 3 4 1016.8 1016.7 0.0
30/07:30am 7.2 5.1 5.8 91 0.6 SSW 6 9 3 5 1016.4 1016.3 0.0
30/07:00am 6.5 4.0 5.0 90 0.7 SSW 7 9 4 5 1016.1 1016.0 0.0
30/06:30am 7.2 6.2 5.7 90 0.7 CALM 0 0 0 0 1015.4 1015.3 0.0
30/06:00am 7.3 6.3 5.8 90 0.7 CALM 0 0 0 0 1015.4 1015.3 0.0
30/05:30am 7.2 5.8 5.5 89 0.8 SSW 2 7 1 4 1015.6 1015.5 0.0
30/05:00am 7.4 5.1 5.7 89 0.8 SSW 7 9 4 5 1015.7 1015.6 0.0
30/04:30am 8.3 7.1 6.3 87 0.9 SSW 2 9 1 5 1015.6 1015.5 0.0
30/04:00am 9.1 8.5 7.2 88 0.9 CALM 0 0 0 0 1015.2 1015.1 0.0
30/03:30am 9.3 8.3 7.3 87 1.0 SSW 2 6 1 3 1015.1 1015.0 0.0
30/03:00am 9.6 7.9 7.4 86 1.1 SSW 6 9 3 5 1015.2 1015.1 0.0
30/02:30am 9.8 7.9 7.4 85 1.1 SSW 7 9 4 5 1015.5 1015.4 0.0
30/02:00am 10.6 7.7 8.0 84 1.3 SSW 13 15 7 8 1015.8 1015.7 0.0
30/01:30am 11.5 8.7 8.5 82 1.5 SSW 13 17 7 9 1015.8 1015.7 0.0
30/01:00am 12.2 8.8 9.0 81 1.6 SSW 17 20 9 11 1016.1 1016.0 0.0
30/12:30am 12.5 9.4 8.8 78 1.9 SW 15 19 8 10 1016.3 1016.2 0.0
30/12:00am 13.2 9.7 8.7 74 2.3 SSW 17 20 9 11 1016.5 1016.4 0.0
 
Date/Time
EDT
Temp
°C
App
Temp
°C
Dew
Point
Rel
Hum
%
Delta-T
°C
Wind Press
QNH
hPa
Press
MSL
hPa
Rain
since 9 am
mm
Dir
 
Spd
km/h
Gust
km/h
Spd
kts
Gust
kts
29/11:30pm 13.8 9.9 8.6 71 2.6 SSW 19 26 10 14 1016.4 1016.3 0.0
29/11:00pm 14.7 10.7 8.4 66 3.2 SSW 19 24 10 13 1016.5 1016.4 0.0
29/10:30pm 15.4 11.4 8.2 62 3.7 SSW 19 22 10 12 1016.6 1016.5 0.0
29/10:00pm 15.7 12.1 8.2 61 3.8 SSW 17 19 9 10 1016.4 1016.3 0.0
29/09:30pm 16.4 13.2 8.6 60 4.0 S 15 19 8 10 1016.2 1016.1 0.0
29/09:00pm 16.8 13.2 8.5 58 4.3 S 17 24 9 13 1016.2 1016.1 0.0
29/08:30pm 18.0 13.1 8.3 53 5.0 SSW 24 33 13 18 1016.1 1016.0 0.0
29/08:00pm 19.5 14.1 7.9 47 6.0 SSW 26 37 14 20 1015.8 1015.7 0.0
29/07:30pm 22.0 17.8 5.8 35 8.2 WSW 17 22 9 12 1015.4 1015.3 0.0
29/07:00pm 22.8 18.2 5.7 33 8.7 WSW 19 24 10 13 1015.2 1015.1 0.0
29/06:30pm 23.4 18.7 6.2 33 8.8 WSW 20 28 11 15 1015.2 1015.1 0.0
29/06:00pm 23.0 17.9 5.9 33 8.7 W 22 32 12 17 1015.2 1015.1 0.0
29/05:30pm 23.3 18.5 5.7 32 9.0 W 20 28 11 15 1015.2 1015.1 0.0
29/05:00pm 22.8 18.2 5.7 33 8.7 W 19 26 10 14 1015.4 1015.3 0.0
29/04:30pm 22.9 18.4 6.2 34 8.6 WNW 19 30 10 16 1015.4 1015.3 0.0
29/04:00pm 22.5 18.0 7.1 37 8.0 W 20 35 11 19 1015.6 1015.5 0.0
29/03:30pm 21.9 17.1 7.3 39 7.6 WNW 22 35 12 19 1016.0 1015.9 0.0
29/03:00pm 21.9 18.0 7.0 38 7.7 W 17 26 9 14 1016.4 1016.3 0.0
29/02:30pm 20.9 16.4 6.8 40 7.2 WNW 20 32 11 17 1016.8 1016.7 0.0
29/02:00pm 21.7 17.4 7.9 41 7.2 WNW 20 32 11 17 1017.0 1016.9 0.0
29/01:30pm 20.0 15.6 6.4 41 6.9 W 19 26 10 14 1017.4 1017.3 0.0
29/01:00pm 19.6 16.4 6.7 43 6.5 WNW 13 22 7 12 1017.9 1017.8 0.0
29/12:30pm 19.3 15.0 6.8 44 6.3 NW 19 30 10 16 1018.3 1018.2 0.0
29/12:00pm 17.9 13.9 6.7 48 5.6 W 17 24 9 13 1018.8 1018.7 0.0
29/11:30am 17.2 14.0 7.0 51 5.1 WNW 13 24 7 13 1019.3 1019.2 0.0
29/11:00am 16.1 13.3 6.8 54 4.6 NW 11 17 6 9 1019.7 1019.7 0.0
29/10:30am 15.5 13.1 7.0 57 4.2 WNW 9 15 5 8 1019.8 1019.8 0.0
29/10:00am 15.0 13.0 7.1 59 3.9 W 7 17 4 9 1020.0 1020.0 0.0
29/09:30am 14.2 11.0 6.8 61 3.6 SSW 13 20 7 11 1019.9 1019.9 0.0
29/09:00am 13.7 10.2 7.0 64 3.3 WSW 15 20 8 11 1020.0 1020.0 0.0
29/08:30am 13.4 10.0 7.8 69 2.8 WSW 15 22 8 12 1019.8 1019.8 0.0
29/08:00am 11.7 10.1 8.6 81 1.5 WSW 7 11 4 6 1019.7 1019.7 0.0
29/07:30am 10.1 8.4 7.7 85 1.2 NW 6 7 3 4 1019.7 1019.7 0.0
29/07:00am 9.5 7.8 7.4 87 1.0 NW 6 9 3 5 1019.6 1019.6 0.0
29/06:30am 8.6 6.5 6.6 87 0.9 WNW 7 9 4 5 1019.5 1019.5 0.0
29/06:00am 8.2 6.6 6.2 87 0.9 SW 4 7 2 4 1019.2 1019.1 0.0
29/05:30am 7.8 6.8 5.8 87 0.9 CALM 0 0 0 0 1019.1 1019.0 0.0
29/05:00am 6.9 5.7 4.7 86 1.0 CALM 0 0 0 0 1018.8 1018.7 0.0
29/04:30am 7.3 5.8 4.9 85 1.1 W 2 11 1 6 1018.5 1018.4 0.0
29/04:00am 7.9 6.1 5.5 85 1.1 W 4 6 2 3 1018.3 1018.2 0.0
29/03:30am 7.8 5.4 5.4 85 1.1 W 7 7 4 4 1018.4 1018.3 0.0
29/03:00am 7.1 5.1 4.4 83 1.2 W 4 7 2 4 1018.4 1018.3 0.0
29/02:30am 8.4 6.2 5.5 82 1.3 W 6 7 3 4 1018.5 1018.4 0.0
29/02:00am 8.5 6.3 5.4 81 1.4 W 6 9 3 5 1018.6 1018.5 0.0
29/01:30am 9.0 6.3 5.6 79 1.6 W 9 11 5 6 1018.9 1018.8 0.0
29/01:00am 9.4 6.7 5.8 78 1.7 W 9 11 5 6 1019.1 1019.0 0.0
29/12:30am 9.4 5.9 5.4 76 1.8 W 13 15 7 8 1019.2 1019.1 0.0
29/12:00am 9.9 6.7 5.3 73 2.1 W 11 13 6 7 1019.2 1019.1 0.0
 
Date/Time
EDT
Temp
°C
App
Temp
°C
Dew
Point
Rel
Hum
%
Delta-T
°C
Wind Press
QNH
hPa
Press
MSL
hPa
Rain
since 9 am
mm
Dir
 
Spd
km/h
Gust
km/h
Spd
kts
Gust
kts
28/11:30pm 10.2 7.0 5.0 70 2.4 W 11 13 6 7 1019.1 1019.0 0.0
28/11:00pm 10.8 7.3 5.3 69 2.5 W 13 15 7 8 1019.0 1018.9 0.0
28/10:30pm 11.6 8.2 5.7 67 2.8 WSW 13 15 7 8 1018.9 1018.8 0.0
28/10:00pm 12.3 8.9 5.7 64 3.1 WSW 13 15 7 8 1018.9 1018.8 0.0
28/09:30pm 13.2 9.8 5.9 61 3.5 WSW 13 15 7 8 1018.5 1018.4 0.0
28/09:00pm 14.6 10.1 6.2 57 4.1 WSW 19 24 10 13 1018.1 1018.0 0.0
28/08:30pm 15.2 10.3 4.3 48 5.1 WSW 19 24 10 13 1017.7 1017.6 0.0
28/08:00pm 16.2 10.2 3.6 43 5.8 W 24 30 13 16 1017.1 1017.0 0.0
28/07:30pm 17.2 10.2 4.2 42 6.2 W 30 41 16 22 1016.8 1016.7 0.0
28/07:00pm 18.1 10.3 4.7 41 6.4 W 35 44 19 24 1016.4 1016.3 0.0
28/06:30pm 19.1 11.3 2.9 34 7.6 W 33 44 18 24 1016.2 1016.1 0.0
28/06:00pm 19.6 11.4 2.5 32 8.0 W 35 46 19 25 1015.9 1015.8 0.0
28/05:30pm 20.0 12.0 3.7 34 7.8 WSW 35 48 19 26 1015.8 1015.7 0.0
28/05:00pm 20.4 12.3 3.2 32 8.2 W 35 67 19 36 1015.7 1015.6 0.0
28/04:59pm 20.5 12.0 3.3 32 8.2 W 37 67 20 36 1015.5 1015.4 0.0
28/04:30pm 20.7 12.4 5.9 38 7.4 WSW 39 50 21 27 1015.7 1015.6 0.0
28/04:00pm 20.1 11.3 5.7 39 7.2 W 41 48 22 26 1015.6 1015.5 0.0
28/03:33pm 21.1 12.8 6.2 38 7.5 W 39 57 21 31 1015.4 1015.3 0.0
28/03:30pm 21.7 13.6 6.8 38 7.7 W 39 52 21 28 1015.5 1015.4 0.0
28/03:00pm 20.2 11.7 8.5 47 6.1 W 43 61 23 33 1015.9 1015.8 0.0
28/02:30pm 19.5 12.4 7.9 47 6.0 WSW 35 50 19 27 1015.9 1015.8 0.0
28/02:14pm 19.5 11.3 6.6 43 6.5 WSW 39 57 21 31 1016.0 1015.9 0.0
28/02:00pm 19.0 10.5 7.1 46 6.0 W 41 56 22 30 1016.0 1015.9 0.0
28/01:30pm 18.4 10.7 7.2 48 5.7 W 37 50 20 27 1016.0 1015.9 0.0
28/01:00pm 18.6 10.3 7.7 49 5.6 W 41 52 22 28 1016.1 1016.0 0.0
28/12:30pm 17.6 10.7 8.7 56 4.6 W 35 46 19 25 1016.0 1015.9 0.0
28/12:21pm 16.8 8.5 9.5 62 3.8 W 43 61 23 33 1016.1 1016.0 0.0
28/12:00pm 18.6 10.7 8.0 50 5.5 W 39 48 21 26 1015.7 1015.6 0.0
28/11:30am 17.3 9.3 7.6 53 4.9 W 39 54 21 29 1015.7 1015.6 0.0
28/11:17am 17.0 9.0 7.6 54 4.8 W 39 57 21 31 1015.7 1015.6 0.0
28/11:00am 16.9 9.9 8.6 58 4.3 W 35 48 19 26 1015.7 1015.6 0.0
28/10:54am 16.0 9.1 9.0 63 3.6 W 35 54 19 29 1015.8 1015.7 0.0
28/10:30am 16.2 8.0 8.4 60 4.0 W 41 56 22 30 1015.5 1015.4 0.0
28/10:00am 15.9 7.3 8.2 60 3.9 W 43 56 23 30 1015.6 1015.5 0.0
28/09:30am 15.6 8.6 8.4 62 3.7 W 35 46 19 25 1015.4 1015.3 0.0
28/09:00am 14.0 7.0 8.4 69 2.8 W 35 48 19 26 1015.5 1015.4 0.2
28/08:50am 13.9 7.8 8.3 69 2.8 W 30 48 16 26 1015.3 1015.2 0.2
28/08:30am 13.4 7.4 8.5 72 2.5 W 30 41 16 22 1015.2 1015.1 0.2
28/08:00am 12.9 7.3 8.6 75 2.2 W 28 37 15 20 1014.9 1014.8 0.2
28/07:30am 10.9 7.2 7.8 81 1.5 NW 17 22 9 12 1014.7 1014.6 0.2
28/07:00am 11.9 4.8 8.0 77 1.9 W 35 46 19 25 1014.6 1014.5 0.2
28/06:56am 11.9 4.0 8.0 77 1.9 W 39 46 21 25 1014.6 1014.5 0.2
28/06:30am 11.0 6.7 7.1 77 1.9 W 19 24 10 13 1014.2 1014.1 0.2
28/06:00am 10.7 6.1 6.6 76 1.9 WNW 20 26 11 14 1014.0 1013.9 0.2
28/05:30am 10.1 6.8 6.4 78 1.7 WNW 13 19 7 10 1013.8 1013.7 0.2
28/05:00am 9.7 5.2 6.1 78 1.7 NW 19 24 10 13 1013.7 1013.6 0.2
28/04:30am 9.9 5.8 6.1 77 1.8 NW 17 22 9 12 1013.8 1013.7 0.2
28/04:00am 9.7 5.5 5.7 76 1.8 NW 17 20 9 11 1013.9 1013.8 0.2
28/03:30am 9.9 6.4 5.5 74 2.0 WNW 13 19 7 10 1014.2 1014.1 0.2
28/03:00am 9.6 5.8 5.6 76 1.8 NW 15 19 8 10 1014.4 1014.3 0.2
28/02:30am 8.6 5.0 5.2 79 1.5 NW 13 17 7 9 1014.7 1014.6 0.2
28/02:00am 8.0 4.3 4.4 78 1.6 NW 13 15 7 8 1014.6 1014.5 0.2
28/01:30am 7.9 4.1 4.1 77 1.7 WNW 13 17 7 9 1014.9 1014.8 0.2
28/01:00am 8.3 4.9 4.1 75 1.8 WNW 11 15 6 8 1015.1 1015.0 0.2
28/12:30am 8.7 5.7 4.1 73 2.0 WNW 9 15 5 8 1015.0 1014.9 0.2
28/12:00am 8.5 5.1 3.8 72 2.0 WNW 11 13 6 7 1015.2 1015.1 0.2

Other Formats:

Comma delimited format used in spreadsheet applications
http://www.bom.gov.au/fwo/IDV60801/IDV60801.94827.axf

JavaScript Object Notation format (JSON) in row-major order
http://www.bom.gov.au/fwo/IDV60801/IDV60801.94827.json